Time;durP1;ratioP1;P1;durP2;ratioP2;P2;SDS_P1;SDS_P2;PMS_P1;PMS_P2;Temp;Humidity;BMP_temperature;BMP_pressure;BME280_temperature;BME280_humidity;BME280_pressure;Samples;Min_cycle;Max_cycle;Signal;HPM_P1;HPM_P2
2021/09/27 00:01:24;;;;;;;6.40;4.13;;;;;;;11.92;66.98;93861.16;5012838;28;20041;-51
2021/09/27 00:03:49;;;;;;;4.20;3.58;;;;;;;11.98;66.74;93860.97;5013083;28;20033;-51
2021/09/27 00:06:15;;;;;;;4.97;4.47;;;;;;;11.94;66.77;93864.13;5012950;28;20380;-52
2021/09/27 00:08:40;;;;;;;7.53;4.88;;;;;;;11.91;66.83;93861.72;5013033;28;20534;-52
2021/09/27 00:11:13;;;;;;;5.53;4.90;;;;;;;11.88;67.02;93863.53;5012891;28;20048;-50
2021/09/27 00:13:41;;;;;;;4.65;4.15;;;;;;;11.92;66.99;93875.00;4995135;28;20025;-50
2021/09/27 00:16:08;;;;;;;6.75;4.50;;;;;;;11.84;66.95;93868.69;5012126;28;20022;-50
2021/09/27 00:18:34;;;;;;;6.28;4.70;;;;;;;11.86;66.92;93871.66;5012717;28;20157;-50
2021/09/27 00:21:02;;;;;;;8.50;4.70;;;;;;;11.54;66.81;93838.09;5012759;28;20065;-50
2021/09/27 00:23:30;;;;;;;4.95;4.45;;;;;;;11.73;66.88;93877.31;5012372;28;20065;-49
2021/09/27 00:25:55;;;;;;;5.28;4.38;;;;;;;11.54;67.49;93854.69;5012387;28;20101;-50
2021/09/27 00:28:21;;;;;;;6.57;4.35;;;;;;;11.66;66.98;93872.44;5012326;28;20180;-50
2021/09/27 00:30:50;;;;;;;4.75;4.07;;;;;;;11.54;66.49;93863.00;5011950;28;20029;-51
2021/09/27 00:33:17;;;;;;;4.65;4.22;;;;;;;11.52;66.43;93854.47;5012185;28;20585;-50
2021/09/27 00:35:43;;;;;;;9.57;4.00;;;;;;;11.43;67.04;93852.22;5012209;28;20029;-51
2021/09/27 00:38:09;;;;;;;4.72;4.05;;;;;;;11.49;66.79;93852.06;5012411;28;20022;-50
2021/09/27 00:40:41;;;;;;;4.45;3.80;;;;;;;11.42;66.92;93851.50;5012393;28;20533;-53
2021/09/27 00:43:07;;;;;;;7.07;3.78;;;;;;;11.38;67.23;93850.34;5012452;28;20049;-51
2021/09/27 00:45:36;;;;;;;3.97;3.58;;;;;;;11.39;66.77;93857.38;5011874;28;20081;-50
2021/09/27 00:48:01;;;;;;;15.93;4.45;;;;;;;11.32;66.94;93867.09;5012004;28;20487;-51
2021/09/27 00:50:32;;;;;;;6.30;3.40;;;;;;;11.24;67.17;93863.53;5011807;28;20022;-50
2021/09/27 00:53:00;;;;;;;20.67;5.63;;;;;;;11.12;68.00;93865.13;4994618;28;20415;-52
2021/09/27 00:55:26;;;;;;;5.68;4.20;;;;;;;11.10;68.26;93866.94;4994707;28;20026;-51
2021/09/27 00:57:52;;;;;;;4.45;3.97;;;;;;;10.94;68.96;93865.34;5011881;28;20411;-50
2021/09/27 01:00:21;;;;;;;5.93;4.55;;;;;;;10.90;70.57;93867.69;4991200;28;20030;-49
2021/09/27 01:02:47;;;;;;;6.68;4.70;;;;;;;10.97;68.96;93826.34;4992145;28;20042;-50
2021/09/27 01:05:16;;;;;;;7.93;4.57;;;;;;;11.27;68.17;93851.41;4992188;28;20042;-51
2021/09/27 01:08:14;;;;;;;5.82;4.80;;;;;;;10.88;68.20;93846.16;4992416;28;20129;-50
2021/09/27 01:10:58;;;;;;;7.20;3.97;;;;;;;10.48;69.61;93845.63;4991995;28;20081;-50
2021/09/27 01:13:47;;;;;;;5.78;4.38;;;;;;;10.50;68.83;93840.31;5009390;28;20038;-49
2021/09/27 01:16:34;;;;;;;4.55;4.03;;;;;;;10.50;69.31;93847.88;5011849;28;20034;-51
2021/09/27 01:19:37;;;;;;;4.88;3.92;;;;;;;10.30;70.38;93830.03;4994263;28;20474;-51
2021/09/27 01:22:14;;;;;;;9.65;4.38;;;;;;;10.46;69.71;93828.88;5011581;28;20041;-50
2021/09/27 01:24:54;;;;;;;5.93;4.00;;;;;;;10.49;69.78;93830.56;5011033;28;20120;-50
2021/09/27 01:27:55;;;;;;;5.95;4.35;;;;;;;10.54;69.60;93832.44;5011622;28;20029;-50
2021/09/27 01:30:27;;;;;;;6.03;4.78;;;;;;;10.55;69.39;93827.66;5009990;28;20036;-52
2021/09/27 01:33:05;;;;;;;5.13;4.13;;;;;;;10.52;69.44;93826.72;5010298;28;20033;-49
2021/09/27 01:36:06;;;;;;;7.35;4.55;;;;;;;10.46;69.67;93828.16;4993963;28;20428;-50
2021/09/27 01:39:03;;;;;;;5.45;4.28;;;;;;;10.41;69.91;93812.44;4980698;28;20060;-51
2021/09/27 01:41:46;;;;;;;4.13;3.58;;;;;;;10.61;68.68;93823.47;5011223;28;20495;-50
2021/09/27 01:44:21;;;;;;;4.40;4.00;;;;;;;10.61;68.79;93817.22;5010790;28;20535;-50
2021/09/27 01:46:59;;;;;;;5.15;4.18;;;;;;;10.55;68.82;93798.03;5010073;28;20033;-50
2021/09/27 01:49:43;;;;;;;5.35;4.68;;;;;;;10.61;67.95;93815.19;5011303;28;20092;-50
2021/09/27 01:52:13;;;;;;;4.97;4.47;;;;;;;10.61;67.69;93820.00;4993202;28;20026;-50
2021/09/27 01:54:47;;;;;;;4.57;3.80;;;;;;;10.62;66.89;93821.47;5009399;28;20037;-50
2021/09/27 01:57:37;;;;;;;5.68;4.25;;;;;;;10.56;67.42;93813.31;5010777;28;20069;-54
2021/09/27 02:00:09;;;;;;;4.35;3.95;;;;;;;10.55;68.15;93811.81;5010647;28;20479;-51
2021/09/27 02:03:00;;;;;;;5.10;3.92;;;;;;;10.44;68.86;93809.34;5011025;28;20527;-49
2021/09/27 02:05:37;;;;;;;4.70;4.20;;;;;;;10.39;68.57;93806.72;5010974;28;20037;-51
2021/09/27 02:08:06;;;;;;;6.25;3.95;;;;;;;10.36;69.10;93799.50;5010796;28;20458;-50
2021/09/27 02:10:39;;;;;;;5.30;4.28;;;;;;;10.40;68.64;93800.66;5010565;28;20033;-50
2021/09/27 02:13:17;;;;;;;6.22;4.00;;;;;;;10.42;68.46;93800.88;5010536;28;20517;-50
2021/09/27 02:15:59;;;;;;;4.30;3.55;;;;;;;10.30;68.17;93805.19;4993051;28;20040;-50
2021/09/27 02:18:36;;;;;;;6.15;4.30;;;;;;;10.31;68.11;93806.66;5009537;28;20107;-51
2021/09/27 02:21:24;;;;;;;5.07;4.55;;;;;;;10.28;68.75;93793.94;5009706;28;20022;-51
2021/09/27 02:23:52;;;;;;;4.85;4.05;;;;;;;10.31;68.95;93803.16;5010110;28;20030;-53
2021/09/27 02:26:18;;;;;;;7.57;4.47;;;;;;;10.24;69.14;93801.81;5010628;28;20033;-50
2021/09/27 02:28:44;;;;;;;4.75;4.28;;;;;;;10.23;68.92;93805.84;5010280;28;20025;-50
2021/09/27 02:31:22;;;;;;;5.15;3.65;;;;;;;10.25;68.53;93806.03;4993245;28;20021;-53
2021/09/27 02:34:04;;;;;;;5.45;4.15;;;;;;;10.16;68.23;93808.53;5010227;28;20577;-53
2021/09/27 02:36:37;;;;;;;6.57;4.47;;;;;;;10.12;68.82;93811.63;5010225;28;20022;-50
2021/09/27 02:39:14;;;;;;;6.38;4.85;;;;;;;10.27;69.00;93822.06;5010352;28;20022;-52
2021/09/27 02:42:15;;;;;;;4.57;4.18;;;;;;;10.23;68.71;93825.16;5009389;28;20527;-50
2021/09/27 02:44:41;;;;;;;4.20;3.80;;;;;;;10.18;68.74;93814.97;4976828;28;20515;-52
2021/09/27 02:47:10;;;;;;;7.00;4.13;;;;;;;10.18;68.83;93823.25;5009266;28;20034;-52
2021/09/27 02:49:44;;;;;;;4.28;3.88;;;;;;;10.16;67.98;93836.13;4992720;28;20022;-52
2021/09/27 02:52:12;;;;;;;4.60;3.92;;;;;;;10.08;67.73;93827.00;4994105;28;20083;-50
2021/09/27 02:54:40;;;;;;;5.07;3.72;;;;;;;10.07;68.42;93833.81;5013986;28;20680;-50
2021/09/27 02:57:22;;;;;;;5.73;3.83;;;;;;;9.97;68.72;93835.53;4996863;28;20036;-51
2021/09/27 03:00:04;;;;;;;4.97;3.70;;;;;;;9.79;68.99;93815.09;5013877;28;20455;-50
2021/09/27 03:03:07;;;;;;;7.05;4.78;;;;;;;9.84;69.10;93822.50;5014256;28;20030;-53
2021/09/27 03:05:44;;;;;;;5.25;4.07;;;;;;;9.93;68.89;93820.06;5013760;28;20030;-52
2021/09/27 03:08:52;;;;;;;6.43;4.15;;;;;;;9.74;69.32;93813.97;5012920;28;20034;-50
2021/09/27 03:12:00;;;;;;;4.82;4.07;;;;;;;9.82;69.38;93812.03;4999865;28;20123;-50
2021/09/27 03:14:41;;;;;;;7.60;4.15;;;;;;;9.80;69.35;93816.59;4996171;28;20038;-50
2021/09/27 03:17:16;;;;;;;5.53;4.18;;;;;;;9.82;69.65;93811.28;5013973;28;20397;-50
2021/09/27 03:20:11;;;;;;;5.50;4.45;;;;;;;9.74;69.68;93807.72;5014044;28;20029;-50
2021/09/27 03:22:55;;;;;;;8.43;4.75;;;;;;;9.69;70.09;93814.81;5013250;28;20121;-50
2021/09/27 03:25:51;;;;;;;5.47;4.25;;;;;;;9.77;69.48;93823.16;5013941;28;20036;-50
2021/09/27 03:28:26;;;;;;;7.15;4.90;;;;;;;9.75;69.10;93826.47;5013477;28;20544;-50
2021/09/27 03:30:54;;;;;;;4.75;4.28;;;;;;;9.68;69.01;93815.38;5013873;28;20022;-51
2021/09/27 03:33:25;;;;;;;6.63;3.97;;;;;;;9.60;69.28;93828.28;4995863;28;20621;-50
2021/09/27 03:36:18;;;;;;;6.57;3.92;;;;;;;9.58;69.11;93828.09;5013317;28;20151;-50
2021/09/27 03:38:50;;;;;;;5.15;4.32;;;;;;;9.55;69.12;93823.66;5013346;28;20034;-52
2021/09/27 03:41:49;;;;;;;6.43;4.32;;;;;;;9.67;69.24;93816.63;5013532;28;20045;-50
2021/09/27 03:44:38;;;;;;;4.60;3.67;;;;;;;9.74;68.21;93818.72;4995413;28;20491;-51
2021/09/27 03:47:10;;;;;;;5.15;3.47;;;;;;;9.60;67.88;93817.28;4995104;28;20068;-51
2021/09/27 03:49:45;;;;;;;9.43;8.77;;;;;;;9.40;68.56;93812.44;5012705;28;20517;-49
2021/09/27 03:52:20;;;;;;;5.18;4.28;;;;;;;9.27;69.92;93815.22;5013176;28;20029;-50
2021/09/27 03:54:54;;;;;;;5.53;4.93;;;;;;;9.07;70.04;93811.81;4995579;28;20037;-50
2021/09/27 03:57:32;;;;;;;11.07;10.27;;;;;;;8.86;71.15;93801.97;5013313;28;20037;-52
2021/09/27 04:00:19;;;;;;;6.65;4.70;;;;;;;9.21;70.16;93809.06;4995658;28;20495;-50
2021/09/27 04:02:56;;;;;;;8.25;4.40;;;;;;;9.31;69.28;93810.13;4993300;28;20030;-51
2021/09/27 04:05:31;;;;;;;7.05;4.82;;;;;;;9.32;70.00;93815.09;4990870;28;20109;-50
2021/09/27 04:08:08;;;;;;;11.35;4.63;;;;;;;9.29;69.89;93812.66;4993152;28;20037;-50
2021/09/27 04:10:52;;;;;;;8.35;5.05;;;;;;;9.27;69.45;93813.19;4993490;28;20092;-53
2021/09/27 04:13:23;;;;;;;8.07;4.30;;;;;;;9.27;69.69;93809.72;4993233;28;20041;-50
2021/09/27 04:15:58;;;;;;;6.40;4.43;;;;;;;9.23;69.43;93804.50;4993304;28;20034;-51
2021/09/27 04:19:13;;;;;;;6.22;4.45;;;;;;;9.35;69.29;93802.28;4993189;28;20111;-50
2021/09/27 04:21:42;;;;;;;6.32;4.22;;;;;;;9.28;70.01;93789.88;4988488;28;20042;-53
2021/09/27 04:24:36;;;;;;;8.70;5.63;;;;;;;9.24;70.39;93774.94;5005992;28;20388;-52
2021/09/27 04:27:30;;;;;;;6.05;4.93;;;;;;;9.32;70.08;93781.28;5011614;28;20455;-50
2021/09/27 04:30:07;;;;;;;7.72;4.82;;;;;;;9.16;69.10;93778.34;5012640;28;20415;-52
2021/09/27 04:32:48;;;;;;;14.38;5.50;;;;;;;9.12;68.88;93775.16;5012227;28;20026;-51
2021/09/27 04:35:29;;;;;;;23.23;5.97;;;;;;;9.23;68.30;93787.22;5010958;28;20042;-52
2021/09/27 04:37:54;;;;;;;8.65;4.85;;;;;;;9.24;68.72;93788.72;5012285;28;20062;-52
2021/09/27 04:40:37;;;;;;;8.65;4.90;;;;;;;9.15;69.60;93785.13;4994594;28;20471;-51
2021/09/27 04:43:11;;;;;;;7.32;5.40;;;;;;;8.97;69.95;93791.50;5012140;28;20025;-52
2021/09/27 04:45:51;;;;;;;43.15;25.65;;;;;;;9.07;69.27;93794.56;5010716;28;20589;-51
2021/09/27 04:48:44;;;;;;;18.33;12.50;;;;;;;8.92;69.74;93786.81;5012181;28;20423;-52
2021/09/27 04:51:13;;;;;;;23.52;13.68;;;;;;;9.15;70.49;93787.88;5011897;28;20026;-50
2021/09/27 04:53:59;;;;;;;15.43;11.00;;;;;;;9.24;69.86;93789.47;5011728;28;20029;-50
2021/09/27 04:57:04;;;;;;;19.70;9.13;;;;;;;9.25;69.91;93795.72;5011747;28;20077;-49
2021/09/27 04:59:38;;;;;;;13.77;8.50;;;;;;;9.22;69.73;93791.28;4954153;28;20036;-52
2021/09/27 05:02:18;;;;;;;15.27;8.13;;;;;;;9.35;70.17;93797.50;4989523;28;20034;-50
2021/09/27 05:04:51;;;;;;;10.57;8.13;;;;;;;9.43;69.81;93797.59;4992516;28;20037;-52
2021/09/27 05:07:48;;;;;;;12.68;7.20;;;;;;;9.48;69.93;93805.00;4992151;28;20113;-52
2021/09/27 05:10:35;;;;;;;7.75;5.95;;;;;;;9.65;69.88;93805.41;4988208;28;20034;-50
2021/09/27 05:13:37;;;;;;;8.18;6.45;;;;;;;9.85;70.60;93812.97;4991907;28;20526;-50
2021/09/27 05:16:36;;;;;;;9.40;6.28;;;;;;;9.93;70.06;93817.31;4991716;28;20030;-51
2021/09/27 05:19:15;;;;;;;13.80;6.30;;;;;;;10.01;69.79;93817.38;4992043;28;20088;-53
2021/09/27 05:21:50;;;;;;;9.25;6.72;;;;;;;10.22;70.34;93825.72;4990835;28;20062;-50
2021/09/27 05:24:34;;;;;;;11.98;6.80;;;;;;;10.31;70.07;93814.94;5000693;28;20099;-51
2021/09/27 05:27:38;;;;;;;9.77;6.55;;;;;;;10.56;69.76;93838.16;5011373;28;20030;-50
2021/09/27 05:30:15;;;;;;;10.25;6.97;;;;;;;10.74;70.33;93827.44;5011510;28;20041;-51
2021/09/27 05:32:46;;;;;;;31.13;7.00;;;;;;;10.91;70.45;93825.00;5011140;28;20037;-50
2021/09/27 05:35:58;;;;;;;18.08;6.80;;;;;;;11.07;70.53;93804.47;5011107;28;20030;-50
2021/09/27 05:38:26;;;;;;;81.53;35.22;;;;;;;11.41;70.64;93805.75;5008888;28;20042;-52
2021/09/27 05:41:11;;;;;;;45.10;22.57;;;;;;;11.37;70.91;93812.91;5010990;28;20037;-50
2021/09/27 05:43:45;;;;;;;14.77;7.40;;;;;;;11.26;71.50;93811.22;5011015;28;20037;-53
2021/09/27 05:46:20;;;;;;;15.05;7.30;;;;;;;11.21;70.90;93825.94;4993448;28;20556;-51
2021/09/27 05:48:54;;;;;;;7.60;6.30;;;;;;;11.38;71.03;93808.88;4993487;28;20164;-51
2021/09/27 05:51:31;;;;;;;8.35;6.53;;;;;;;11.48;71.49;93815.38;5010893;28;20081;-53
2021/09/27 05:54:04;;;;;;;9.27;7.53;;;;;;;11.67;72.80;93815.88;5010665;28;20507;-50
2021/09/27 05:56:37;;;;;;;25.45;10.13;;;;;;;11.85;71.58;93814.06;4993382;28;20088;-50
2021/09/27 05:59:05;;;;;;;12.57;9.55;;;;;;;12.00;71.46;93814.88;5009865;28;20049;-50
2021/09/27 06:01:56;;;;;;;12.40;9.30;;;;;;;12.06;71.52;93804.38;5011000;28;20458;-51
2021/09/27 06:04:25;;;;;;;17.75;10.90;;;;;;;12.39;71.17;93812.94;5010028;28;20065;-51
2021/09/27 06:07:09;;;;;;;12.10;10.05;;;;;;;12.72;70.42;93803.53;5009835;28;20029;-51
2021/09/27 06:09:40;;;;;;;12.35;9.38;;;;;;;13.19;69.01;93811.28;4993436;28;20041;-51
2021/09/27 06:24:44;;;;;;;14.70;10.20;;;;;;;17.20;58.54;93811.91;5128441;27;20611;-53
2021/09/27 06:27:15;;;;;;;12.90;7.72;;;;;;;17.60;58.08;93801.00;5128531;27;20469;-51
2021/09/27 06:29:52;;;;;;;10.40;6.60;;;;;;;18.06;57.25;93806.44;5127989;27;20035;-50
2021/09/27 06:32:32;;;;;;;10.10;6.63;;;;;;;18.71;55.61;93806.19;5106581;28;20028;-49
2021/09/27 06:35:01;;;;;;;16.13;7.45;;;;;;;19.37;53.80;93807.22;5107778;28;20035;-51
2021/09/27 06:37:26;;;;;;;;;;;;;;;19.73;53.69;93806.84;5108579;28;20020;-51
2021/09/27 06:39:52;;;;;;;12.93;6.88;;;;;;;19.97;53.20;93804.88;5106539;28;19908;-51
2021/09/27 06:42:18;;;;;;;11.38;6.75;;;;;;;20.11;53.05;93808.63;5106527;28;20020;-51
2021/09/27 06:44:45;;;;;;;11.15;7.93;;;;;;;20.30;52.76;93795.19;5107866;28;20153;-51
2021/09/27 06:47:13;;;;;;;22.33;7.03;;;;;;;20.76;51.03;93800.19;5107521;28;20098;-50
2021/09/27 06:49:38;;;;;;;11.70;6.45;;;;;;;21.41;49.50;93793.63;5106180;28;20482;-50
2021/09/27 06:52:04;;;;;;;11.32;6.50;;;;;;;22.39;47.25;93786.66;5106135;28;20027;-50
2021/09/27 06:54:29;;;;;;;15.13;7.90;;;;;;;23.67;44.01;93792.84;5107526;28;20027;-50
2021/09/27 06:56:55;;;;;;;11.88;6.28;;;;;;;24.65;41.90;93793.44;5107608;28;20743;-50
2021/09/27 06:59:21;;;;;;;9.30;6.28;;;;;;;24.95;39.91;93777.94;5107659;28;20026;-48
2021/09/27 07:01:47;;;;;;;8.45;6.15;;;;;;;25.46;39.53;93778.16;5107170;28;20024;-49
2021/09/27 07:04:13;;;;;;;7.85;5.40;;;;;;;25.91;38.55;93761.00;5107267;28;20068;-48
2021/09/27 07:06:39;;;;;;;9.40;6.32;;;;;;;26.49;38.14;93783.25;5107537;28;20024;-47
2021/09/27 07:09:05;;;;;;;30.42;19.67;;;;;;;26.78;37.03;93771.69;5107151;28;20042;-47
2021/09/27 07:11:30;;;;;;;25.95;16.70;;;;;;;27.25;36.41;93781.94;5107127;28;20027;-47
2021/09/27 07:13:55;;;;;;;32.47;13.35;;;;;;;27.47;35.67;93777.88;5106915;28;20016;-47
2021/09/27 07:16:21;;;;;;;12.90;9.82;;;;;;;27.81;35.38;93778.34;5107038;28;20023;-48
2021/09/27 07:18:46;;;;;;;11.52;7.40;;;;;;;28.34;33.84;93767.44;5106903;28;20031;-47
2021/09/27 07:21:12;;;;;;;9.30;7.32;;;;;;;28.96;33.01;93779.38;5106509;28;20030;-48
2021/09/27 07:23:39;;;;;;;10.90;6.70;;;;;;;29.27;32.83;93778.91;5104771;28;20044;-48
2021/09/27 07:26:11;;;;;;;12.35;7.35;;;;;;;29.28;32.99;93783.22;5093416;28;20028;-51
2021/09/27 07:28:37;;;;;;;12.95;7.88;;;;;;;29.03;33.43;93790.25;5093413;28;20020;-47
2021/09/27 07:31:03;;;;;;;13.65;7.28;;;;;;;29.27;33.01;93792.41;5092410;28;20550;-49
2021/09/27 07:33:29;;;;;;;7.40;5.25;;;;;;;29.81;32.03;93794.75;5092439;28;20016;-48
2021/09/27 07:35:55;;;;;;;6.22;3.90;;;;;;;30.11;29.72;93789.13;5093038;28;20035;-51
2021/09/27 07:38:22;;;;;;;5.20;4.70;;;;;;;30.23;30.06;93791.59;5093279;28;20024;-48
2021/09/27 07:40:48;;;;;;;6.55;4.25;;;;;;;30.99;29.31;93787.13;5093178;28;20043;-48
2021/09/27 07:43:13;;;;;;;6.10;5.15;;;;;;;31.79;28.47;93768.16;5092935;28;20476;-51
2021/09/27 07:45:38;;;;;;;7.97;4.60;;;;;;;32.60;27.76;93776.13;5093103;28;20027;-51
2021/09/27 07:48:07;;;;;;;7.43;5.75;;;;;;;32.80;27.01;93771.47;5093175;28;20024;-50
2021/09/27 07:50:33;;;;;;;4.97;4.47;;;;;;;32.81;26.66;93766.47;5092864;28;20020;-50
2021/09/27 07:52:59;;;;;;;8.23;4.80;;;;;;;32.74;26.58;93759.94;5092606;28;20080;-49
2021/09/27 07:55:25;;;;;;;6.18;4.88;;;;;;;32.91;26.81;93775.22;5092834;28;20099;-48
2021/09/27 07:57:50;;;;;;;7.13;5.32;;;;;;;32.78;27.26;93780.03;5092900;28;20173;-49
2021/09/27 08:00:18;;;;;;;8.88;4.82;;;;;;;32.53;27.47;93766.72;5092668;28;20078;-48
2021/09/27 08:02:43;;;;;;;7.05;5.40;;;;;;;32.19;27.44;93763.25;5091668;28;20016;-49
2021/09/27 08:05:13;;;;;;;5.70;4.50;;;;;;;32.61;27.37;93772.59;5092832;28;20510;-49
2021/09/27 08:07:38;;;;;;;8.73;4.45;;;;;;;33.52;25.46;93771.13;5092785;28;20043;-48
2021/09/27 08:10:07;;;;;;;15.63;4.18;;;;;;;34.39;23.79;93770.03;5092748;28;20067;-50
2021/09/27 08:12:36;;;;;;;3.58;3.03;;;;;;;34.89;23.19;93769.78;5091948;28;20098;-51
2021/09/27 08:15:07;;;;;;;4.47;3.45;;;;;;;35.68;22.22;93768.16;5091787;28;20625;-49
2021/09/27 08:17:32;;;;;;;19.02;3.72;;;;;;;35.80;22.05;93740.19;5096003;28;20508;-51
2021/09/27 08:20:00;;;;;;;16.05;3.13;;;;;;;36.69;21.17;93754.81;5112651;28;20076;-48
2021/09/27 08:22:26;;;;;;;5.50;2.97;;;;;;;37.30;20.69;93757.69;5098593;28;20012;-52
2021/09/27 08:24:51;;;;;;;6.75;2.30;;;;;;;37.81;20.10;93751.16;5092151;28;20031;-48
2021/09/27 08:27:16;;;;;;;4.15;2.20;;;;;;;38.31;19.05;93755.25;5091998;28;20073;-50
2021/09/27 08:29:42;;;;;;;3.80;2.10;;;;;;;38.66;18.35;93748.50;5092016;28;20077;-49
2021/09/27 08:32:07;;;;;;;4.30;2.55;;;;;;;36.52;19.68;93744.75;5092263;28;20027;-49
2021/09/27 08:34:33;;;;;;;4.47;2.40;;;;;;;37.31;19.97;93750.50;5092255;28;20515;-48
2021/09/27 08:36:58;;;;;;;3.47;2.22;;;;;;;38.13;19.05;93752.44;5091209;28;20082;-48
2021/09/27 08:39:24;;;;;;;2.95;2.33;;;;;;;37.56;19.53;93743.97;5091857;28;20516;-51
2021/09/27 08:42:02;;;;;;;3.40;2.20;;;;;;;38.67;18.51;93746.34;5091753;28;20489;-48
2021/09/27 08:44:52;;;;;;;3.53;2.42;;;;;;;39.27;17.67;93748.06;5092037;28;20154;-48
2021/09/27 08:47:27;;;;;;;4.07;2.25;;;;;;;38.99;18.13;93748.28;5090501;28;20020;-50
2021/09/27 08:49:58;;;;;;;5.85;2.45;;;;;;;38.37;18.12;93746.56;5090816;28;20034;-51
2021/09/27 08:52:25;;;;;;;2.42;2.20;;;;;;;37.84;18.82;93758.31;5091618;28;20052;-50
2021/09/27 08:54:52;;;;;;;7.93;3.03;;;;;;;37.50;18.75;93749.03;5090754;28;20028;-48
2021/09/27 08:57:43;;;;;;;3.15;2.85;;;;;;;37.21;19.29;93742.59;5091447;28;20099;-48
2021/09/27 09:00:30;;;;;;;2.95;2.20;;;;;;;37.04;20.52;93753.41;5091428;28;20620;-50
2021/09/27 09:02:56;;;;;;;4.47;2.13;;;;;;;37.00;20.31;93753.41;5091378;28;20020;-51
2021/09/27 09:06:00;;;;;;;5.38;3.03;;;;;;;36.66;20.02;93744.03;5091356;28;20039;-48
2021/09/27 09:08:48;;;;;;;3.60;3.03;;;;;;;36.18;20.75;93744.66;5091325;28;20024;-48
2021/09/27 09:11:13;;;;;;;2.85;2.58;;;;;;;36.32;21.00;93741.81;5090394;28;20027;-49
2021/09/27 09:13:46;;;;;;;5.57;3.05;;;;;;;36.80;20.14;93736.13;5093546;28;20496;-49
2021/09/27 09:16:18;;;;;;;2.67;2.28;;;;;;;37.90;19.37;93717.22;5111598;27;20535;-50
2021/09/27 09:18:56;;;;;;;3.50;2.40;;;;;;;37.84;18.28;93720.84;5110329;28;20027;-49
2021/09/27 09:21:48;;;;;;;3.33;2.63;;;;;;;38.13;18.18;93726.47;5111335;28;20092;-49
2021/09/27 09:24:17;;;;;;;2.55;2.30;;;;;;;38.70;17.40;93727.59;5111271;28;20444;-52
2021/09/27 09:26:46;;;;;;;2.30;2.10;;;;;;;39.20;16.69;93726.47;5110127;28;20528;-47
2021/09/27 09:29:13;;;;;;;2.33;2.13;;;;;;;39.39;17.18;93711.09;5111232;28;20035;-48
2021/09/27 09:31:44;;;;;;;2.28;2.08;;;;;;;39.63;16.08;93715.94;5110317;28;20028;-50
2021/09/27 09:34:19;;;;;;;4.95;2.20;;;;;;;39.27;16.79;93722.06;5110095;28;20031;-51
2021/09/27 09:36:48;;;;;;;3.25;2.10;;;;;;;39.48;16.59;93723.28;5111489;28;20035;-52
2021/09/27 09:52:32;;;;;;;2.60;2.40;;;;;;;37.78;17.15;93613.50;5128400;27;20610;-54
2021/09/27 09:54:58;;;;;;;6.70;2.25;;;;;;;37.50;17.14;93620.13;5128439;27;20511;-50
2021/09/27 09:57:34;;;;;;;2.05;1.88;;;;;;;38.04;16.66;93699.84;5128344;27;20094;-52
2021/09/27 10:00:06;;;;;;;2.00;1.90;;;;;;;37.12;17.54;93698.00;5128553;27;20036;-52
2021/09/27 10:02:32;;;;;;;5.47;2.22;;;;;;;37.16;17.44;93628.88;5128735;27;20443;-50
2021/09/27 10:05:25;;;;;;;4.40;2.08;;;;;;;38.38;16.75;93696.78;5127344;28;20023;-51
2021/09/27 10:07:54;;;;;;;1.67;1.58;;;;;;;39.24;14.83;93686.72;5127025;28;20117;-48
2021/09/27 10:10:33;;;;;;;1.83;1.70;;;;;;;40.10;13.59;93684.97;5120835;28;20080;-50
2021/09/27 10:13:02;;;;;;;3.35;1.80;;;;;;;40.18;13.88;93686.34;5107892;28;20020;-50
2021/09/27 10:15:34;;;;;;;1.70;1.60;;;;;;;39.39;14.11;93675.72;5120734;28;20024;-49
2021/09/27 10:18:17;;;;;;;3.40;1.70;;;;;;;37.40;15.67;93682.81;5127946;27;20499;-49
2021/09/27 10:20:56;;;;;;;2.20;2.00;;;;;;;38.47;15.14;93651.25;5126651;28;20031;-50
2021/09/27 10:23:50;;;;;;;2.10;1.90;;;;;;;39.02;13.24;93663.06;5126093;28;20032;-49
2021/09/27 10:26:34;;;;;;;3.25;1.50;;;;;;;38.73;15.25;93665.50;5126636;28;20031;-50
2021/09/27 10:29:06;;;;;;;4.97;2.40;;;;;;;38.54;15.09;93664.19;5127829;27;20034;-48
2021/09/27 10:31:35;;;;;;;18.05;2.45;;;;;;;38.82;12.45;93661.09;5124902;28;20087;-50
2021/09/27 10:34:04;;;;;;;2.97;1.60;;;;;;;39.42;12.88;93651.81;5127769;27;20023;-52
2021/09/27 10:36:38;;;;;;;13.15;2.45;;;;;;;39.78;11.86;93652.88;5126364;28;20031;-47
2021/09/27 10:39:06;;;;;;;1.50;1.15;;;;;;;39.42;12.66;93656.88;5126500;28;20058;-50
2021/09/27 10:41:43;;;;;;;;;;;;;;;39.29;12.86;93656.31;5128382;27;20169;-51
2021/09/27 10:44:15;;;;;;;1.70;1.60;;;;;;;38.94;13.00;93660.28;5126658;28;19912;-47
2021/09/27 10:46:43;;;;;;;2.22;1.00;;;;;;;38.79;11.21;93651.00;5127476;27;20023;-49
2021/09/27 10:49:27;;;;;;;1.38;1.27;;;;;;;39.42;11.00;93651.09;5127528;27;20072;-50
2021/09/27 10:51:57;;;;;;;2.58;1.40;;;;;;;39.71;10.78;93643.56;5119651;28;20777;-50
2021/09/27 10:54:40;;;;;;;5.25;1.95;;;;;;;39.08;11.11;93634.13;5114064;28;20036;-50
2021/09/27 10:57:14;;;;;;;1.27;1.10;;;;;;;38.82;12.30;93640.88;5113623;28;20061;-50
2021/09/27 10:59:59;;;;;;;2.42;1.33;;;;;;;38.45;11.56;93631.81;5111997;28;20110;-51
2021/09/27 11:02:44;;;;;;;4.28;1.67;;;;;;;38.60;12.81;93626.63;5112949;28;20097;-52
2021/09/27 11:05:21;;;;;;;8.45;2.33;;;;;;;38.15;13.82;93623.38;5113657;28;20106;-50
2021/09/27 11:07:53;;;;;;;3.90;1.63;;;;;;;38.55;14.25;93620.19;5113749;28;20031;-50
2021/09/27 11:10:22;;;;;;;5.03;1.45;;;;;;;38.79;14.73;93619.25;5107188;28;21018;-49
2021/09/27 11:12:50;;;;;;;3.60;2.03;;;;;;;37.42;15.52;93608.66;5091654;28;20023;-51
2021/09/27 11:15:30;;;;;;;3.08;1.73;;;;;;;36.44;16.69;93613.16;5093195;28;20105;-51
2021/09/27 11:18:15;;;;;;;3.13;2.13;;;;;;;36.03;17.13;93602.34;5091891;28;20036;-51
2021/09/27 11:20:49;;;;;;;6.70;2.33;;;;;;;36.77;16.09;93602.31;5092630;28;20055;-50
2021/09/27 11:23:19;;;;;;;7.82;2.22;;;;;;;36.89;15.86;93593.69;5112939;28;20112;-50
2021/09/27 11:25:49;;;;;;;5.28;2.53;;;;;;;37.33;16.49;93597.84;5113232;28;20042;-50
2021/09/27 11:28:31;;;;;;;6.35;2.33;;;;;;;36.74;15.36;93580.00;5113346;28;20114;-50
2021/09/27 11:31:26;;;;;;;6.25;2.67;;;;;;;36.14;16.89;93587.25;5111657;28;20052;-52
2021/09/27 11:33:54;;;;;;;4.72;2.50;;;;;;;35.95;16.91;93574.31;5112070;28;20032;-50
2021/09/27 11:36:27;;;;;;;4.97;2.25;;;;;;;36.10;16.58;93586.53;5111932;28;20038;-51
2021/09/27 11:39:05;;;;;;;4.88;2.25;;;;;;;36.15;17.25;93585.09;5112442;28;20082;-50
2021/09/27 11:41:33;;;;;;;6.87;2.40;;;;;;;36.26;17.32;93584.38;5112953;28;20401;-49
2021/09/27 11:44:24;;;;;;;14.55;2.60;;;;;;;36.31;16.92;93571.44;5112633;28;20429;-49
2021/09/27 11:47:15;;;;;;;7.93;2.80;;;;;;;36.38;17.24;93577.91;5112808;27;20058;-50
2021/09/27 11:50:06;;;;;;;6.88;2.60;;;;;;;33.68;18.97;93567.31;5097836;28;20479;-51
2021/09/27 11:53:11;;;;;;;6.40;2.45;;;;;;;34.47;19.33;93580.13;5092520;28;20111;-50
2021/09/27 11:55:40;;;;;;;9.05;2.65;;;;;;;34.63;19.38;93580.97;5090861;28;20736;-49
2021/09/27 11:58:34;;;;;;;6.40;2.55;;;;;;;33.88;19.38;93579.66;5091163;28;20149;-48
2021/09/27 12:01:04;;;;;;;10.45;2.92;;;;;;;32.47;20.09;93574.34;5092202;28;20445;-49
2021/09/27 12:03:51;;;;;;;5.47;2.55;;;;;;;32.20;20.64;93566.81;5089700;28;20088;-50
2021/09/27 12:06:21;;;;;;;9.30;2.70;;;;;;;32.55;21.22;93571.66;5095437;28;20023;-49
2021/09/27 12:09:03;;;;;;;10.93;3.10;;;;;;;32.73;22.78;93571.88;5110967;28;20023;-49
2021/09/27 12:11:32;;;;;;;7.82;4.60;;;;;;;32.45;22.75;93563.63;5110844;28;20027;-52
2021/09/27 12:14:03;;;;;;;5.18;3.33;;;;;;;32.49;23.05;93572.28;5112216;28;20031;-50
2021/09/27 12:16:36;;;;;;;7.05;4.78;;;;;;;32.60;22.87;93568.16;5112352;28;20035;-50
2021/09/27 12:19:26;;;;;;;6.45;3.78;;;;;;;32.71;23.96;93569.72;5112031;28;20074;-50
2021/09/27 12:22:05;;;;;;;8.13;4.05;;;;;;;32.53;23.21;93560.19;5103279;28;20063;-49
2021/09/27 12:24:34;;;;;;;6.38;3.88;;;;;;;32.67;23.93;93569.69;5091832;28;20093;-49
2021/09/27 12:27:25;;;;;;;6.07;2.90;;;;;;;32.73;23.43;93564.03;5091764;28;20421;-49
2021/09/27 12:30:11;;;;;;;6.85;3.30;;;;;;;32.08;22.95;93553.06;5091660;28;20063;-49
2021/09/27 12:32:42;;;;;;;4.35;3.00;;;;;;;32.00;24.31;93556.53;5091529;28;20028;-49
2021/09/27 12:35:15;;;;;;;9.60;3.00;;;;;;;32.08;24.10;93547.34;5091650;28;20500;-50
2021/09/27 12:37:42;;;;;;;6.03;2.95;;;;;;;32.21;23.25;93565.41;5091549;28;20028;-49
2021/09/27 12:40:13;;;;;;;7.63;2.65;;;;;;;32.08;23.74;93562.38;5091205;28;20035;-50